Donnelly, ID (83615)

1:15 PM MST on January 20, 2017 (GMT -0700)
Railroad Village | | Change Station

Elev 4872 ft 44.70 °N, 116.08 °W | Updated 22 seconds ago

Mostly Cloudy
Mostly Cloudy
33.8 °F
Feels Like 30 °F
N
3.8
Wind Variable Wind from South
Gusts 5.4 mph

Today
High -- | Low -- °F
--% Chance of Precip.
Yesterday
High -- | Low -- °F
Precip. -- in
Pressure 29.35 in
Visibility 10.0 miles
Clouds Mostly Cloudy 9000 ft
Windchill 30 °F
Dew Point 8 °F
Humidity 34%
Rainfall 0.02 in
Snow Depth Not available.
8:14 AM 5:36 PM
Last Quarter, 41% visible
METAR KMYL 201951Z AUTO 14005KT 10SM BKN090 M01/M05 A2928 RMK AO2 SLP938 T10111050
Pressure 29.35 in
Visibility 10.0 miles
Clouds Mostly Cloudy 9000 ft
Windchill 30 °F
Dew Point 8 °F
Humidity 34%
Rainfall 0.02 in
Snow Depth Not available.
8:14 AM 5:36 PM
Last Quarter, 41% visible
METAR KMYL 201951Z AUTO 14005KT 10SM BKN090 M01/M05 A2928 RMK AO2 SLP938 T10111050

Get Your Daily Forecast Email!

Thanks for signing up!

Be on the lookout for a verification email in your inbox.

You'll start receiving the daily forecast at 8 AM.

×

10-Day Weather Forecast

Almanac

Astronomy

Jan. 20, 2017 Rise Set
Actual Time
Civil Twilight
Nautical Twilight
Astronomical Twilight
Moon
Length of Visible Light
Length of Day
Tomorrow will be .
, % of the Moon is Illuminated

Today's Extremes

State Highs State Lows

Community

WunderPhotos

Upload Photos

1,962,540 photos uploaded!

WunderBlog® & News

Nearby

Air Quality

  Air Quality AQ Index Pollutant
Not available.

Snow Depth

Station Depth Elevation

Earthquake Activity

City Distance Mag. Time & Date
Minimum magnitude displayed is 2.5.

Coastal Water Temperatures

Place Temperature

Stations

Nearby Weather Stations

Station Location Temp. Windchill Dew Point Humidity Wind Precip. Elev Updated Type
                   

Watches & Warnings

There are currently no watches in effect.